Time;durP1;ratioP1;P1;durP2;ratioP2;P2;SDS_P1;SDS_P2;PMS_P1;PMS_P2;Temp;Humidity;BMP_temperature;BMP_pressure;BME280_temperature;BME280_humidity;BME280_pressure;Samples;Min_cycle;Max_cycle;Signal;HPM_P1;HPM_P2
2022/05/19 00:03:15;;;;;;;;;;;;;;;17.53;55.19824;101839.8;;;;-81
2022/05/19 00:05:49;;;;;;;5.9;3.4;;;;;;;;;;;;;-82
2022/05/19 00:07:53;;;;;;;;;;;;;;;17.51;55.37695;101827;;;;-81
2022/05/19 00:12:54;;;;;;;;;;;;;;;17.51;55.38672;101823.6;;;;-82
2022/05/19 00:17:55;;;;;;;;;;;;;;;17.48;55.30469;101822.8;;;;-81
2022/05/19 00:22:58;;;;;;;;;;;;;;;17.47;55.42773;101818.2;;;;-80
2022/05/19 00:27:55;;;;;;;;;;;;;;;17.46;56.10547;101819.5;;;;-81
2022/05/19 00:33:04;;;;;;;;;;;;;;;17.44;55.91113;101807.2;;;;-82
2022/05/19 00:35:39;;;;;;;7.7;3.7;;;;;;;;;;;;;-82
2022/05/19 00:38:00;;;;;;;;;;;;;;;17.43;55.58203;101800.1;;;;-81
2022/05/19 00:42:57;;;;;;;;;;;;;;;17.43;55.81934;101789.9;;;;-82
2022/05/19 00:47:57;;;;;;;;;;;;;;;17.42;55.82813;101803.1;;;;-81
2022/05/19 00:52:58;;;;;;;;;;;;;;;17.41;55.95215;101796.9;;;;-82
2022/05/19 00:57:56;;;;;;;;;;;;;;;17.39;56.52734;101781;;;;-81
2022/05/19 01:03:03;;;;;;;;;;;;;;;17.39;56.1543;101767.7;;;;-81
2022/05/19 01:05:44;;;;;;;7.5;4.1;;;;;;;;;;;;;-80
2022/05/19 01:08:02;;;;;;;;;;;;;;;17.36;56.35352;101756.3;;;;-84
2022/05/19 01:12:58;;;;;;;;;;;;;;;17.37;56.57031;101767.3;;;;-78
2022/05/19 01:17:55;;;;;;;;;;;;;;;17.37;57.33984;101792.1;;;;-82
2022/05/19 01:22:56;;;;;;;;;;;;;;;17.39;56.93359;101773.4;;;;-80
2022/05/19 01:28:07;;;;;;;;;;;;;;;17.4;57.89746;101746.2;;;;-82
2022/05/19 01:32:57;;;;;;;;;;;;;;;17.41;57.21973;101734.5;;;;-82
2022/05/19 01:35:51;;;;;;;10.7;5.4;;;;;;;;;;;;;-81
2022/05/19 01:38:06;;;;;;;;;;;;;;;17.41;57.45703;101728.2;;;;-82
2022/05/19 01:43:01;;;;;;;;;;;;;;;17.42;58.52246;101724.1;;;;-82
2022/05/19 01:47:59;;;;;;;;;;;;;;;17.43;58.52441;101714.2;;;;-82
2022/05/19 01:53:05;;;;;;;;;;;;;;;17.43;57.90234;101702.6;;;;-82
2022/05/19 02:03:02;;;;;;;;;;;;;;;17.44;59.14746;101697.2;;;;-84
2022/05/19 02:05:55;;;;;;;11.5;6.4;;;;;;;;;;;;;-82
2022/05/19 02:08:01;;;;;;;;;;;;;;;17.46;59.93066;101698.9;;;;-81
2022/05/19 02:13:04;;;;;;;;;;;;;;;17.46;59.16211;101695.2;;;;-83
2022/05/19 02:18:05;;;;;;;;;;;;;;;17.47;59.80762;101702.8;;;;-82
2022/05/19 02:23:02;;;;;;;;;;;;;;;17.47;59.07129;101691.6;;;;-81
2022/05/19 02:27:56;;;;;;;;;;;;;;;17.47;59.18555;101684.5;;;;-83
2022/05/19 02:33:01;;;;;;;;;;;;;;;17.48;59.15234;101686.7;;;;-81
2022/05/19 02:36:00;;;;;;;11;6.8;;;;;;;;;;;;;-82
2022/05/19 02:37:55;;;;;;;;;;;;;;;17.48;59.16406;101678.1;;;;-83
2022/05/19 02:43:01;;;;;;;;;;;;;;;17.48;59.43555;101682.1;;;;-83
2022/05/19 02:47:56;;;;;;;;;;;;;;;17.48;59.26563;101684.8;;;;-82
2022/05/19 02:52:56;;;;;;;;;;;;;;;17.5;58.99707;101682.4;;;;-82
2022/05/19 02:57:55;;;;;;;;;;;;;;;17.51;59.08887;101675.3;;;;-82
2022/05/19 03:02:54;;;;;;;;;;;;;;;17.52;59.24902;101684.1;;;;-81
2022/05/19 03:05:56;;;;;;;14.1;7.9;;;;;;;;;;;;;-82
2022/05/19 03:07:55;;;;;;;;;;;;;;;17.54;59.7832;101742;;;;-83
2022/05/19 03:12:58;;;;;;;;;;;;;;;17.58;60.75;101767.6;;;;-83
2022/05/19 03:17:57;;;;;;;;;;;;;;;17.61;62.83398;101770;;;;-83
2022/05/19 03:22:55;;;;;;;;;;;;;;;17.63;62.62207;101782.7;;;;-81
2022/05/19 03:27:58;;;;;;;;;;;;;;;17.64;63.93457;101797.2;;;;-83
2022/05/19 03:32:52;;;;;;;;;;;;;;;17.63;65.2334;101808.1;;;;-83
2022/05/19 03:35:58;;;;;;;19.5;11.3;;;;;;;;;;;;;-82
2022/05/19 03:37:52;;;;;;;;;;;;;;;17.63;66.38574;101806;;;;-81
2022/05/19 03:42:53;;;;;;;;;;;;;;;17.64;68.26074;101794.5;;;;-82
2022/05/19 03:55:48;;;;;;;;;;;;;;;17.71;69.3877;101856.7;;;;-82
2022/05/19 04:00:48;;;;;;;;;;;;;;;17.73;70.01172;101879.1;;;;-80
2022/05/19 04:05:45;;;;;;;;;;;;;;;17.72;69.95508;101888.5;;;;-81
2022/05/19 04:05:54;;;;;;;15.2;8;;;;;;;;;;;;;-81
2022/05/19 04:10:48;;;;;;;;;;;;;;;17.72;69.94238;101923.6;;;;-81
2022/05/19 04:15:45;;;;;;;;;;;;;;;17.71;70.24512;101932.2;;;;-80
2022/05/19 04:20:45;;;;;;;;;;;;;;;17.67;70.12695;101939.8;;;;-79
2022/05/19 04:25:45;;;;;;;;;;;;;;;17.64;70.49512;101939.9;;;;-78
2022/05/19 04:30:45;;;;;;;;;;;;;;;17.61;70.28613;101934.3;;;;-78
2022/05/19 04:35:45;;;;;;;;;;;;;;;17.58;69.61621;101923;;;;-80
2022/05/19 04:35:58;;;;;;;9;5;;;;;;;;;;;;;-79
2022/05/19 04:40:47;;;;;;;;;;;;;;;17.56;69.44434;101897.5;;;;-80
2022/05/19 04:45:45;;;;;;;;;;;;;;;17.51;70.06738;101849.6;;;;-79
2022/05/19 04:50:45;;;;;;;;;;;;;;;17.52;68.68164;101834;;;;-78
2022/05/19 04:55:45;;;;;;;;;;;;;;;17.52;67.93652;101820;;;;-79
2022/05/19 05:00:45;;;;;;;;;;;;;;;17.5;66.91797;101817.4;;;;-80
2022/05/19 05:05:45;;;;;;;;;;;;;;;17.49;66.71387;101814.5;;;;-81
2022/05/19 05:05:57;;;;;;;7;3.7;;;;;;;;;;;;;-80
2022/05/19 05:10:45;;;;;;;;;;;;;;;17.48;66.27246;101819.5;;;;-81
2022/05/19 05:15:46;;;;;;;;;;;;;;;17.47;65.78418;101813.6;;;;-80
2022/05/19 05:20:46;;;;;;;;;;;;;;;17.46;65.87402;101813.2;;;;-80
2022/05/19 05:25:53;;;;;;;;;;;;;;;17.45;66.22266;101806.9;;;;-80
2022/05/19 05:30:46;;;;;;;;;;;;;;;17.46;66.15625;101791.5;;;;-80
2022/05/19 05:35:48;;;;;;;;;;;;;;;17.47;66.54199;101782.3;;;;-81
2022/05/19 05:36:00;;;;;;;7.2;3.6;;;;;;;;;;;;;-81
2022/05/19 05:40:45;;;;;;;;;;;;;;;17.47;65.91113;101760.3;;;;-81
2022/05/19 05:45:48;;;;;;;;;;;;;;;17.5;66.58105;101743.7;;;;-80
2022/05/19 05:50:48;;;;;;;;;;;;;;;17.51;65.39551;101723.6;;;;-80
2022/05/19 05:55:45;;;;;;;;;;;;;;;17.55;65.39063;101709.9;;;;-82
2022/05/19 06:00:49;;;;;;;;;;;;;;;17.59;64.83301;101704;;;;-81
2022/05/19 06:05:48;;;;;;;;;;;;;;;17.64;64.89453;101712.6;;;;-80
2022/05/19 06:06:01;;;;;;;7.8;4.3;;;;;;;;;;;;;-79
2022/05/19 06:10:46;;;;;;;;;;;;;;;17.7;66.0332;101722.9;;;;-80
2022/05/19 06:15:48;;;;;;;;;;;;;;;17.78;66.65625;101724.4;;;;-82
2022/05/19 06:20:48;;;;;;;;;;;;;;;17.86;67.42383;101731.8;;;;-79
2022/05/19 06:25:51;;;;;;;;;;;;;;;17.94;67.52637;101729.3;;;;-81
2022/05/19 06:30:46;;;;;;;;;;;;;;;18.03;67.72266;101723.4;;;;-81
2022/05/19 06:35:48;;;;;;;;;;;;;;;18.14;68.07617;101724.9;;;;-81
2022/05/19 06:36:04;;;;;;;9.6;5.4;;;;;;;;;;;;;-80
2022/05/19 06:40:45;;;;;;;;;;;;;;;18.23;67.1748;101731.6;;;;-81
2022/05/19 06:45:48;;;;;;;;;;;;;;;18.3;66.44141;101734.2;;;;-79
2022/05/19 06:50:46;;;;;;;;;;;;;;;18.36;66.47168;101736.8;;;;-82
2022/05/19 06:55:46;;;;;;;;;;;;;;;18.42;65.71191;101755.2;;;;-80
2022/05/19 07:00:48;;;;;;;;;;;;;;;18.48;65.64063;101761.5;;;;-81
2022/05/19 07:05:47;;;;;;;;;;;;;;;18.51;65.2373;101764.8;;;;-80
2022/05/19 07:06:06;;;;;;;8.4;4.2;;;;;;;;;;;;;-80
2022/05/19 07:10:45;;;;;;;;;;;;;;;18.6;65.3418;101778.6;;;;-80
2022/05/19 07:15:45;;;;;;;;;;;;;;;18.7;64.74414;101771.7;;;;-81
2022/05/19 07:20:52;;;;;;;;;;;;;;;18.81;64.33008;101780.8;;;;-80
2022/05/19 07:25:45;;;;;;;;;;;;;;;18.92;64.61816;101780.8;;;;-80
2022/05/19 07:30:51;;;;;;;;;;;;;;;19.03;64.56543;101802.7;;;;-81
2022/05/19 07:35:46;;;;;;;;;;;;;;;19.13;63.74121;101796.8;;;;-82
2022/05/19 07:36:16;;;;;;;5.5;3.8;;;;;;;;;;;;;-81
2022/05/19 07:40:45;;;;;;;;;;;;;;;19.22;63.57227;101790.7;;;;-81
2022/05/19 07:45:46;;;;;;;;;;;;;;;19.24;62.97559;101781.1;;;;-80
2022/05/19 07:50:45;;;;;;;;;;;;;;;19.22;62.53027;101752.9;;;;-80
2022/05/19 07:55:45;;;;;;;;;;;;;;;19.22;62.41602;101762.2;;;;-79
2022/05/19 08:00:46;;;;;;;;;;;;;;;19.23;62.02051;101737.4;;;;-82
2022/05/19 08:05:45;;;;;;;;;;;;;;;19.29;62.08496;101764.9;;;;-81
2022/05/19 08:06:12;;;;;;;7.2;3.7;;;;;;;;;;;;;-82
2022/05/19 08:10:45;;;;;;;;;;;;;;;19.39;61.63281;101795.2;;;;-79
2022/05/19 08:15:48;;;;;;;;;;;;;;;19.43;61.54785;101768.5;;;;-80
2022/05/19 08:20:47;;;;;;;;;;;;;;;19.46;61.23535;101762.9;;;;-82
2022/05/19 08:25:47;;;;;;;;;;;;;;;19.51;61.13867;101770;;;;-81
2022/05/19 08:30:47;;;;;;;;;;;;;;;19.58;60.83105;101766.1;;;;-82
2022/05/19 08:35:45;;;;;;;;;;;;;;;19.75;60.56934;101767.6;;;;-80
2022/05/19 08:36:14;;;;;;;5.4;3.4;;;;;;;;;;;;;-81
2022/05/19 08:40:47;;;;;;;;;;;;;;;19.99;60.22656;101781;;;;-80
2022/05/19 08:45:48;;;;;;;;;;;;;;;20.18;60.98145;101781.1;;;;-80
2022/05/19 08:50:48;;;;;;;;;;;;;;;20.24;62.2168;101763.4;;;;-81
2022/05/19 08:55:49;;;;;;;;;;;;;;;20.19;61.9834;101724;;;;-81
2022/05/19 09:00:49;;;;;;;;;;;;;;;20.16;62.50293;101704.1;;;;-80
2022/05/19 09:05:56;;;;;;;;;;;;;;;20.28;64.75879;101702.7;;;;-80
2022/05/19 09:06:27;;;;;;;9.3;6;;;;;;;;;;;;;-80
2022/05/19 09:10:56;;;;;;;;;;;;;;;20.54;64.5127;101695.2;;;;-81
2022/05/19 09:15:45;;;;;;;;;;;;;;;20.94;64.1709;101666.9;;;;-81
2022/05/19 09:20:47;;;;;;;;;;;;;;;21.32;64.29492;101669.5;;;;-81
2022/05/19 09:25:49;;;;;;;;;;;;;;;21.8;64.60254;101690.9;;;;-82
2022/05/19 09:30:56;;;;;;;;;;;;;;;22.28;64.35156;101718.5;;;;-81
2022/05/19 09:35:47;;;;;;;;;;;;;;;22.8;62.91797;101728.9;;;;-81
2022/05/19 09:36:22;;;;;;;8.3;5.7;;;;;;;;;;;;;-81
2022/05/19 09:40:48;;;;;;;;;;;;;;;23.21;61.25781;101730;;;;-81
2022/05/19 09:45:46;;;;;;;;;;;;;;;23.4;60.33203;101719.7;;;;-81
2022/05/19 09:50:46;;;;;;;;;;;;;;;23.48;60.50488;101720.9;;;;-81
2022/05/19 09:55:46;;;;;;;;;;;;;;;23.52;60.29102;101721.4;;;;-82
2022/05/19 10:00:49;;;;;;;;;;;;;;;23.53;60.53516;101708.4;;;;-81
2022/05/19 10:05:49;;;;;;;;;;;;;;;23.62;60.6709;101696.7;;;;-80
2022/05/19 10:06:25;;;;;;;6.7;4.1;;;;;;;;;;;;;-81
2022/05/19 10:10:51;;;;;;;;;;;;;;;23.86;60.29102;101686.6;;;;-85
2022/05/19 10:15:54;;;;;;;;;;;;;;;24.2;59.75195;101685.4;;;;-81
2022/05/19 10:21:00;;;;;;;;;;;;;;;24.56;59.12109;101658.1;;;;-81
2022/05/19 10:25:59;;;;;;;;;;;;;;;24.84;58.17871;101658.6;;;;-84
2022/05/19 10:35:51;;;;;;;;;;;;;;;25.54;57.84277;101648.1;;;;-84
2022/05/19 10:36:33;;;;;;;6.3;4;;;;;;;;;;;;;-82
2022/05/19 10:40:53;;;;;;;;;;;;;;;25.88;57.20703;101677.7;;;;-82
2022/05/19 10:45:47;;;;;;;;;;;;;;;26.12;56.04883;101696.9;;;;-82
2022/05/19 10:50:50;;;;;;;;;;;;;;;26.24;55.2666;101718.5;;;;-82
2022/05/19 10:55:53;;;;;;;;;;;;;;;26.18;55.03906;101733.5;;;;-80
2022/05/19 11:00:53;;;;;;;;;;;;;;;26.02;54.66309;101767.8;;;;-81
2022/05/19 11:05:50;;;;;;;;;;;;;;;25.78;55.07129;101815.6;;;;-81
2022/05/19 11:06:38;;;;;;;5.1;2.8;;;;;;;;;;;;;-83
2022/05/19 11:10:48;;;;;;;;;;;;;;;25.45;55.49219;101831.7;;;;-80
2022/05/19 11:15:50;;;;;;;;;;;;;;;24.93;55.85449;101829.9;;;;-81
2022/05/19 11:20:48;;;;;;;;;;;;;;;24.47;56.56836;101832;;;;-81
2022/05/19 11:30:49;;;;;;;;;;;;;;;23.62;58.08008;101811.3;;;;-80
2022/05/19 11:35:49;;;;;;;;;;;;;;;23.3;58.63379;101850.8;;;;-81
2022/05/19 11:36:35;;;;;;;4.2;2.3;;;;;;;;;;;;;-81
2022/05/19 11:40:47;;;;;;;;;;;;;;;22.99;58.85645;101913.3;;;;-81
2022/05/19 11:45:47;;;;;;;;;;;;;;;22.65;59.09863;101917.8;;;;-82
2022/05/19 11:55:49;;;;;;;;;;;;;;;22.05;59.56836;101941.3;;;;-80
2022/05/19 12:00:56;;;;;;;;;;;;;;;21.78;59.5791;101944.6;;;;-80
2022/05/19 12:05:56;;;;;;;;;;;;;;;21.53;59.65918;101929.7;;;;-80
2022/05/19 12:06:37;;;;;;;7.6;3.2;;;;;;;;;;;;;-82
2022/05/19 12:10:46;;;;;;;;;;;;;;;21.32;59.3916;101923.2;;;;-79
2022/05/19 12:15:54;;;;;;;;;;;;;;;21.17;59.43945;101912.1;;;;-81
2022/05/19 12:21:07;;;;;;;;;;;;;;;20.99;59.59766;101883;;;;-80
2022/05/19 12:25:47;;;;;;;;;;;;;;;20.83;59.59961;101866.3;;;;-79
2022/05/19 12:35:47;;;;;;;;;;;;;;;20.58;60.26172;101839.4;;;;-81
2022/05/19 12:36:44;;;;;;;8.2;4;;;;;;;;;;;;;-79
2022/05/19 12:40:55;;;;;;;;;;;;;;;20.46;60.66602;101828.5;;;;-80
2022/05/19 12:45:47;;;;;;;;;;;;;;;20.34;61.08203;101786.1;;;;-79
2022/05/19 12:50:54;;;;;;;;;;;;;;;20.2;61.35938;101765.2;;;;-80
2022/05/19 12:55:56;;;;;;;;;;;;;;;20.08;61.3877;101757.3;;;;-79
2022/05/19 13:00:47;;;;;;;;;;;;;;;19.96;61.98438;101709.3;;;;-81
2022/05/19 13:05:52;;;;;;;;;;;;;;;19.86;61.9707;101722.2;;;;-84
2022/05/19 13:06:43;;;;;;;11.2;4.7;;;;;;;;;;;;;-81
2022/05/19 13:10:47;;;;;;;;;;;;;;;19.76;62.07129;101721.5;;;;-80
2022/05/19 13:15:56;;;;;;;;;;;;;;;19.67;62.05957;101738.7;;;;-80
2022/05/19 13:20:45;;;;;;;;;;;;;;;19.63;62.40625;101742.6;;;;-81
2022/05/19 13:25:54;;;;;;;;;;;;;;;19.61;62.49316;101754.6;;;;-80
2022/05/19 13:30:55;;;;;;;;;;;;;;;19.62;62.55273;101753.7;;;;-80
2022/05/19 13:35:45;;;;;;;;;;;;;;;19.69;63.02734;101755.5;;;;-81
2022/05/19 13:36:45;;;;;;;10.8;4.6;;;;;;;;;;;;;-81
2022/05/19 13:40:46;;;;;;;;;;;;;;;19.87;62.49609;101739.7;;;;-81
2022/05/19 13:45:48;;;;;;;;;;;;;;;20.15;64.85352;101745.4;;;;-79
2022/05/19 13:50:47;;;;;;;;;;;;;;;20.51;66.19043;101746.6;;;;-81
2022/05/19 13:55:47;;;;;;;;;;;;;;;20.97;64.93945;101752.2;;;;-82
2022/05/19 14:00:55;;;;;;;;;;;;;;;21.54;64.24609;101764.6;;;;-84
2022/05/19 14:05:51;;;;;;;;;;;;;;;22.12;62.85547;101778.6;;;;-83
2022/05/19 14:06:59;;;;;;;9.6;4.5;;;;;;;;;;;;;-84
2022/05/19 14:10:58;;;;;;;;;;;;;;;22.7;62.49121;101784.3;;;;-83
2022/05/19 14:15:55;;;;;;;;;;;;;;;23.24;62.625;101787.9;;;;-84
2022/05/19 14:21:07;;;;;;;;;;;;;;;23.77;62.18262;101797.8;;;;-86
2022/05/19 14:25:46;;;;;;;;;;;;;;;24.27;61.57422;101804.6;;;;-84
2022/05/19 14:30:49;;;;;;;;;;;;;;;24.77;60.95508;101804;;;;-85
2022/05/19 14:35:55;;;;;;;;;;;;;;;25.18;60.42188;101800.5;;;;-86
2022/05/19 14:36:56;;;;;;;8;3.7;;;;;;;;;;;;;-85
2022/05/19 14:45:51;;;;;;;;;;;;;;;25.8;59.52539;101799.4;;;;-86
2022/05/19 14:50:50;;;;;;;;;;;;;;;25.84;58.41309;101816.9;;;;-86
2022/05/19 14:55:49;;;;;;;;;;;;;;;25.68;57.41211;101832.7;;;;-86
2022/05/19 15:00:51;;;;;;;;;;;;;;;25.35;56.80566;101842.6;;;;-84
2022/05/19 15:05:47;;;;;;;;;;;;;;;24.94;56.82227;101837.8;;;;-82
2022/05/19 15:06:56;;;;;;;6.7;3.2;;;;;;;;;;;;;-85
2022/05/19 15:10:46;;;;;;;;;;;;;;;24.85;56.92676;101848.4;;;;-80
2022/05/19 15:15:47;;;;;;;;;;;;;;;24.93;56.91406;101855.7;;;;-87
2022/05/19 15:20:46;;;;;;;;;;;;;;;24.97;56.35449;101870.8;;;;-85
2022/05/19 15:25:46;;;;;;;;;;;;;;;24.96;56.07715;101885.1;;;;-85
2022/05/19 15:30:50;;;;;;;;;;;;;;;24.92;55.98047;101892.2;;;;-83
2022/05/19 15:35:45;;;;;;;;;;;;;;;24.86;55.94922;101903.9;;;;-85
2022/05/19 15:36:59;;;;;;;13.2;5.4;;;;;;;;;;;;;-84
2022/05/19 15:40:46;;;;;;;;;;;;;;;24.7;55.7793;101913.8;;;;-85
2022/05/19 15:45:45;;;;;;;;;;;;;;;24.48;55.92578;101940;;;;-83
2022/05/19 15:50:47;;;;;;;;;;;;;;;24.29;56.09668;101938.7;;;;-85
2022/05/19 15:55:49;;;;;;;;;;;;;;;24.05;56.23926;101953;;;;-84
2022/05/19 16:00:45;;;;;;;;;;;;;;;23.81;56.53125;101954.9;;;;-83
2022/05/19 16:05:45;;;;;;;;;;;;;;;23.61;56.73633;101957.9;;;;-83
2022/05/19 16:07:11;;;;;;;18.6;8.7;;;;;;;;;;;;;-84
2022/05/19 16:10:48;;;;;;;;;;;;;;;23.5;56.91699;101961;;;;-83
2022/05/19 16:15:51;;;;;;;;;;;;;;;23.43;56.85059;101975.9;;;;-86
2022/05/19 16:20:45;;;;;;;;;;;;;;;23.33;56.82813;101974.5;;;;-84
2022/05/19 16:25:53;;;;;;;;;;;;;;;23.28;56.87695;101976.2;;;;-83
2022/05/19 16:30:47;;;;;;;;;;;;;;;23.22;56.78906;101979.8;;;;-85
2022/05/19 16:35:45;;;;;;;;;;;;;;;23.15;56.76953;101983;;;;-83
2022/05/19 16:37:07;;;;;;;16.5;7.7;;;;;;;;;;;;;-84
2022/05/19 16:40:45;;;;;;;;;;;;;;;23.04;56.54883;101984.6;;;;-85
2022/05/19 16:45:45;;;;;;;;;;;;;;;22.96;56.5498;101994.3;;;;-83
2022/05/19 16:50:49;;;;;;;;;;;;;;;22.85;56.3418;102004.7;;;;-83
2022/05/19 17:00:47;;;;;;;;;;;;;;;22.68;56.34277;102007;;;;-83
2022/05/19 17:05:48;;;;;;;;;;;;;;;22.61;56.35742;102019.3;;;;-84
2022/05/19 17:07:11;;;;;;;13.2;6.3;;;;;;;;;;;;;-84
2022/05/19 17:10:47;;;;;;;;;;;;;;;22.51;56.21875;102027.7;;;;-83
2022/05/19 17:15:46;;;;;;;;;;;;;;;22.35;56.23242;102041.5;;;;-84
2022/05/19 17:20:46;;;;;;;;;;;;;;;22.2;56.31641;102045.6;;;;-85
2022/05/19 17:25:46;;;;;;;;;;;;;;;22.05;56.34375;102052.6;;;;-83
2022/05/19 17:30:45;;;;;;;;;;;;;;;21.83;56.31641;102058.1;;;;-83
2022/05/19 17:35:49;;;;;;;;;;;;;;;21.68;56.62793;102057.7;;;;-83
2022/05/19 17:37:14;;;;;;;10.9;4.8;;;;;;;;;;;;;-83
2022/05/19 17:40:48;;;;;;;;;;;;;;;21.53;56.74707;102060.9;;;;-84
2022/05/19 17:45:46;;;;;;;;;;;;;;;21.41;56.8916;102064;;;;-83
2022/05/19 17:50:45;;;;;;;;;;;;;;;21.26;56.70215;102056.5;;;;-83
2022/05/19 17:55:48;;;;;;;;;;;;;;;21.04;56.73145;102060.6;;;;-83
2022/05/19 18:00:45;;;;;;;;;;;;;;;20.85;56.72949;102066.5;;;;-83
2022/05/19 18:05:46;;;;;;;;;;;;;;;20.7;56.89258;102076.5;;;;-86
2022/05/19 18:07:18;;;;;;;9.4;3.5;;;;;;;;;;;;;-84
2022/05/19 18:10:45;;;;;;;;;;;;;;;20.53;56.72266;102080.5;;;;-84
2022/05/19 18:20:46;;;;;;;;;;;;;;;20.23;56.76367;102100.6;;;;-86
2022/05/19 18:25:47;;;;;;;;;;;;;;;20.07;56.93652;102102.1;;;;-83
2022/05/19 18:30:46;;;;;;;;;;;;;;;19.9;57.14355;102101;;;;-85
2022/05/19 18:35:55;;;;;;;;;;;;;;;19.68;56.86523;102102.2;;;;-81
2022/05/19 18:37:19;;;;;;;7;3;;;;;;;;;;;;;-83
2022/05/19 18:45:45;;;;;;;;;;;;;;;19.27;56.54004;102118.3;;;;-83
2022/05/19 18:50:45;;;;;;;;;;;;;;;19.06;56.3877;102127;;;;-84
2022/05/19 18:55:45;;;;;;;;;;;;;;;18.85;56.61133;102137;;;;-84
2022/05/19 19:00:45;;;;;;;;;;;;;;;18.61;56.78516;102141.8;;;;-82
2022/05/19 19:05:45;;;;;;;;;;;;;;;18.38;57.39063;102145.8;;;;-83
2022/05/19 19:07:22;;;;;;;5.1;2.2;;;;;;;;;;;;;-83
2022/05/19 19:10:46;;;;;;;;;;;;;;;18.16;57.77051;102164.3;;;;-84
2022/05/19 19:15:48;;;;;;;;;;;;;;;17.95;58.33301;102159.9;;;;-83
2022/05/19 19:21:01;;;;;;;;;;;;;;;17.74;58.89258;102172.7;;;;-84
2022/05/19 19:26:11;;;;;;;;;;;;;;;17.55;59.41113;102174.7;;;;-85
2022/05/19 19:30:46;;;;;;;;;;;;;;;17.36;59.88379;102173.4;;;;-84
2022/05/19 19:35:47;;;;;;;;;;;;;;;17.17;60.19629;102176.1;;;;-84
2022/05/19 19:37:24;;;;;;;6.6;2.8;;;;;;;;;;;;;-85
2022/05/19 19:40:45;;;;;;;;;;;;;;;16.98;60.53223;102175.5;;;;-82
2022/05/19 19:45:46;;;;;;;;;;;;;;;16.78;60.77637;102188;;;;-82
2022/05/19 19:55:49;;;;;;;;;;;;;;;16.43;61.19043;102210.8;;;;-83
2022/05/19 20:00:46;;;;;;;;;;;;;;;16.26;61.57227;102216.5;;;;-83
2022/05/19 20:05:48;;;;;;;;;;;;;;;16.11;61.90039;102230.2;;;;-83
2022/05/19 20:07:26;;;;;;;5.8;3;;;;;;;;;;;;;-83
2022/05/19 20:10:48;;;;;;;;;;;;;;;15.96;62.11621;102240.3;;;;-81
2022/05/19 20:15:47;;;;;;;;;;;;;;;15.83;62.40234;102240.5;;;;-84
2022/05/19 20:20:47;;;;;;;;;;;;;;;15.69;62.57324;102240.5;;;;-83
2022/05/19 20:25:48;;;;;;;;;;;;;;;15.54;62.84473;102236;;;;-83
2022/05/19 20:30:48;;;;;;;;;;;;;;;15.42;63.04102;102239.1;;;;-82
2022/05/19 20:35:47;;;;;;;;;;;;;;;15.29;63.25879;102241.7;;;;-83
2022/05/19 20:37:29;;;;;;;6.3;3;;;;;;;;;;;;;-82
2022/05/19 20:40:45;;;;;;;;;;;;;;;15.21;63.32715;102252.5;;;;-82
2022/05/19 20:45:51;;;;;;;;;;;;;;;15.1;63.63672;102251.7;;;;-83
2022/05/19 20:50:46;;;;;;;;;;;;;;;15.03;63.96191;102252.5;;;;-83
2022/05/19 20:55:45;;;;;;;;;;;;;;;14.93;64.19434;102261.5;;;;-81
2022/05/19 21:00:45;;;;;;;;;;;;;;;14.84;63.61035;102261.9;;;;-82
2022/05/19 21:05:45;;;;;;;;;;;;;;;14.75;63.94531;102251.2;;;;-82
2022/05/19 21:07:31;;;;;;;6.3;3;;;;;;;;;;;;;-81
2022/05/19 21:10:45;;;;;;;;;;;;;;;14.64;63.92871;102246.7;;;;-81
2022/05/19 21:15:45;;;;;;;;;;;;;;;14.57;64.16504;102243.1;;;;-81
2022/05/19 21:20:45;;;;;;;;;;;;;;;14.49;64.28906;102241.7;;;;-81
2022/05/19 21:25:58;;;;;;;;;;;;;;;14.4;64.1416;102241.7;;;;-81
2022/05/19 21:30:45;;;;;;;;;;;;;;;14.29;64.05859;102241.4;;;;-80
2022/05/19 21:35:45;;;;;;;;;;;;;;;14.19;64.21191;102246.9;;;;-81
2022/05/19 21:37:31;;;;;;;5.9;3.1;;;;;;;;;;;;;-83
2022/05/19 21:40:46;;;;;;;;;;;;;;;14.12;64.61621;102254.8;;;;-80
2022/05/19 21:45:45;;;;;;;;;;;;;;;14.03;64.56934;102257.8;;;;-81
2022/05/19 21:55:10;;;;;;;;;;;;;;;13.96;64.58203;102258.5;;;;-81
2022/05/19 21:55:45;;;;;;;;;;;;;;;13.87;64.53418;102253.4;;;;-81
2022/05/19 22:00:48;;;;;;;;;;;;;;;13.79;64.75879;102254.6;;;;-82
2022/05/19 22:07:32;;;;;;;;;;;;;;;13.71;64.83691;102250.9;;;;-82
2022/05/19 22:07:38;;;;;;;7.7;3.6;;;;;;;;;;;;;-84
2022/05/19 22:10:45;;;;;;;;;;;;;;;13.64;64.81543;102250.6;;;;-80
2022/05/19 22:15:45;;;;;;;;;;;;;;;13.56;64.74609;102252.8;;;;-80
2022/05/19 22:20:45;;;;;;;;;;;;;;;13.49;65.0166;102249.1;;;;-80
2022/05/19 22:25:45;;;;;;;;;;;;;;;13.41;64.9248;102245.8;;;;-80
2022/05/19 22:30:45;;;;;;;;;;;;;;;13.34;65.06055;102252.1;;;;-80
2022/05/19 22:35:45;;;;;;;;;;;;;;;13.28;65.25391;102262.9;;;;-80
2022/05/19 22:37:34;;;;;;;8.4;4.4;;;;;;;;;;;;;-82
2022/05/19 22:40:57;;;;;;;;;;;;;;;13.21;65.2207;102258.5;;;;-81
2022/05/19 22:45:47;;;;;;;;;;;;;;;13.13;65.39844;102258.7;;;;-81
2022/05/19 22:50:45;;;;;;;;;;;;;;;13.07;65.38867;102261.1;;;;-81
2022/05/19 22:55:45;;;;;;;;;;;;;;;12.99;65.39941;102260.1;;;;-81
2022/05/19 23:00:45;;;;;;;;;;;;;;;12.94;65.52832;102276.1;;;;-81
2022/05/19 23:05:45;;;;;;;;;;;;;;;12.88;65.30566;102275.7;;;;-81
2022/05/19 23:07:35;;;;;;;7.8;4.6;;;;;;;;;;;;;-80
2022/05/19 23:10:45;;;;;;;;;;;;;;;12.83;65.74512;102283.1;;;;-81
2022/05/19 23:15:45;;;;;;;;;;;;;;;12.79;65.46973;102279.9;;;;-81
2022/05/19 23:20:45;;;;;;;;;;;;;;;12.74;65.65332;102286.3;;;;-80
2022/05/19 23:25:45;;;;;;;;;;;;;;;12.67;65.77637;102284.4;;;;-80
2022/05/19 23:30:45;;;;;;;;;;;;;;;12.62;65.52344;102283.7;;;;-80
2022/05/19 23:35:45;;;;;;;;;;;;;;;12.55;65.7041;102279.1;;;;-83
2022/05/19 23:37:36;;;;;;;9.3;4.4;;;;;;;;;;;;;-81
2022/05/19 23:40:45;;;;;;;;;;;;;;;12.51;65.62988;102282.3;;;;-80
2022/05/19 23:45:45;;;;;;;;;;;;;;;12.45;65.7207;102286.8;;;;-80
2022/05/19 23:50:45;;;;;;;;;;;;;;;12.42;65.875;102288.6;;;;-81
2022/05/19 23:55:45;;;;;;;;;;;;;;;12.38;65.62109;102278.5;;;;-79
